Time;durP1;ratioP1;P1;durP2;ratioP2;P2;SDS_P1;SDS_P2;PMS_P1;PMS_P2;Temp;Humidity;BMP_temperature;BMP_pressure;BME280_temperature;BME280_humidity;BME280_pressure;Samples;Min_cycle;Max_cycle;Signal;HPM_P1;HPM_P2
2022/04/13 00:01:10;;;;;;;10.23;3.60;;;;;;;-145.45;100.00;62759.84;5305735;28;20173;-76
2022/04/13 00:03:43;;;;;;;10.88;3.80;;;;;;;-145.45;100.00;62759.84;5303491;28;20572;-76
2022/04/13 00:06:15;;;;;;;8.40;3.20;;;;;;;-145.45;100.00;62759.84;5305903;28;20056;-76
2022/04/13 00:08:46;;;;;;;7.68;3.25;;;;;;;-145.45;100.00;62759.84;5300755;28;20457;-76
2022/04/13 00:11:18;;;;;;;7.15;3.65;;;;;;;-145.45;100.00;62759.84;5298019;28;20039;-76
2022/04/13 00:13:49;;;;;;;7.40;3.72;;;;;;;-145.45;100.00;62759.84;5301273;28;20041;-76
2022/04/13 00:16:20;;;;;;;8.18;3.25;;;;;;;-145.45;100.00;62759.84;5303412;28;20131;-77
2022/04/13 00:18:52;;;;;;;9.23;3.20;;;;;;;-145.45;100.00;62759.84;5307942;28;33104;-76
2022/04/13 00:21:23;;;;;;;7.65;3.13;;;;;;;-145.45;100.00;62759.84;5305687;28;20025;-76
2022/04/13 00:23:56;;;;;;;8.20;3.53;;;;;;;-145.45;100.00;62759.84;5306111;28;20098;-76
2022/04/13 00:26:28;;;;;;;8.23;3.17;;;;;;;-145.45;100.00;62759.84;5309447;28;20028;-77
2022/04/13 00:28:59;;;;;;;7.55;3.20;;;;;;;-145.45;100.00;62759.84;5308844;28;20858;-77
2022/04/13 00:31:31;;;;;;;8.70;3.75;;;;;;;-145.45;100.00;62759.84;5308539;28;20361;-76
2022/04/13 00:34:02;;;;;;;10.25;3.78;;;;;;;-145.45;100.00;62759.84;5306236;28;20131;-76
2022/04/13 00:36:33;;;;;;;10.88;3.97;;;;;;;-145.45;100.00;62759.84;5312231;28;20089;-77
2022/04/13 00:39:05;;;;;;;13.43;4.00;;;;;;;-145.45;100.00;62759.84;5303831;28;20024;-77
2022/04/13 00:41:36;;;;;;;8.40;3.35;;;;;;;-145.45;100.00;62759.84;5306732;28;20024;-77
2022/04/13 00:44:09;;;;;;;9.38;3.78;;;;;;;-145.45;100.00;62759.84;5308413;28;20093;-76
2022/04/13 00:46:40;;;;;;;7.30;2.97;;;;;;;-145.45;100.00;62759.84;5303418;28;20021;-77
2022/04/13 00:49:14;;;;;;;9.32;3.38;;;;;;;-145.45;100.00;62759.84;5307976;28;20034;-78
2022/04/13 00:51:45;;;;;;;10.45;3.55;;;;;;;-145.45;100.00;62759.84;5307341;28;20591;-77
2022/04/13 00:54:18;;;;;;;11.93;3.85;;;;;;;-145.45;100.00;62759.84;5313910;28;20029;-77
2022/04/13 00:56:53;;;;;;;8.18;3.40;;;;;;;-145.45;100.00;62759.84;5307630;27;20071;-77
2022/04/13 00:59:25;;;;;;;8.68;3.65;;;;;;;-145.45;100.00;62759.84;5315026;28;20024;-76
2022/04/13 01:01:57;;;;;;;9.20;3.72;;;;;;;-145.45;100.00;62759.84;5313545;28;20017;-77
2022/04/13 01:04:29;;;;;;;7.75;4.18;;;;;;;-145.45;100.00;62759.84;5311566;28;20024;-77
2022/04/13 01:07:07;;;;;;;6.75;3.78;;;;;;;-145.45;100.00;62759.84;5313009;28;20029;-77
2022/04/13 01:09:40;;;;;;;11.60;4.72;;;;;;;-145.45;100.00;62759.84;5310916;28;20025;-77
2022/04/13 01:12:11;;;;;;;10.60;4.40;;;;;;;-145.45;100.00;62759.84;5311972;28;20163;-77
2022/04/13 01:14:42;;;;;;;7.72;4.53;;;;;;;-145.45;100.00;62759.84;5314109;28;20134;-78
2022/04/13 01:17:14;;;;;;;10.15;3.85;;;;;;;-145.45;100.00;62759.84;5312130;28;20090;-75
2022/04/13 01:19:46;;;;;;;13.13;5.22;;;;;;;-145.45;100.00;62759.84;5311221;28;20060;-75
2022/04/13 01:22:21;;;;;;;13.35;5.03;;;;;;;-145.45;100.00;62759.84;5307740;28;20021;-78
2022/04/13 01:24:52;;;;;;;12.27;5.88;;;;;;;-145.45;100.00;62759.84;5312583;28;20111;-75
2022/04/13 01:27:26;;;;;;;10.55;5.50;;;;;;;-145.45;100.00;62759.84;5316627;28;20082;-76
2022/04/13 01:29:57;;;;;;;15.27;5.97;;;;;;;-145.45;100.00;62759.84;5309870;28;20028;-78
2022/04/13 01:32:29;;;;;;;13.85;6.65;;;;;;;-145.45;100.00;62759.84;5306620;28;20554;-78
2022/04/13 01:35:00;;;;;;;16.58;6.57;;;;;;;-145.45;100.00;62759.84;5289157;28;20024;-78
2022/04/13 01:37:32;;;;;;;12.10;5.95;;;;;;;-145.45;100.00;62759.84;5296019;28;20040;-78
2022/04/13 01:40:04;;;;;;;10.05;5.72;;;;;;;-145.45;100.00;62759.84;5291138;28;20036;-75
2022/04/13 01:42:36;;;;;;;15.00;5.72;;;;;;;-145.45;100.00;62759.84;5307583;28;20129;-75
2022/04/13 01:45:08;;;;;;;11.45;6.85;;;;;;;-145.45;100.00;62759.84;5313941;28;20029;-75
2022/04/13 01:47:39;;;;;;;15.05;6.28;;;;;;;-145.45;100.00;62759.84;5308349;28;20378;-78
2022/04/13 01:50:11;;;;;;;15.38;6.97;;;;;;;-145.45;100.00;62759.84;5296743;28;20161;-76
2022/04/13 01:52:43;;;;;;;12.35;6.72;;;;;;;-145.45;100.00;62759.84;5312271;28;20026;-76
2022/04/13 01:55:15;;;;;;;11.85;6.65;;;;;;;-145.45;100.00;62759.84;5309271;28;20440;-76
2022/04/13 01:57:46;;;;;;;13.88;6.38;;;;;;;-145.45;100.00;62759.84;5295335;28;20119;-76
2022/04/13 02:00:17;;;;;;;13.75;6.88;;;;;;;-145.45;100.00;62759.84;5291359;28;20032;-76
2022/04/13 02:02:49;;;;;;;12.48;6.90;;;;;;;-145.45;100.00;62759.84;5309606;28;20143;-76
2022/04/13 02:05:20;;;;;;;11.27;6.75;;;;;;;-145.45;100.00;62759.84;5308965;28;20081;-76
2022/04/13 02:07:52;;;;;;;10.20;6.38;;;;;;;-145.45;100.00;62759.84;5290026;28;20028;-76
2022/04/13 02:10:23;;;;;;;12.85;7.00;;;;;;;-145.45;100.00;62759.84;5307427;28;20031;-76
2022/04/13 02:12:54;;;;;;;14.15;6.93;;;;;;;-145.45;100.00;62759.84;5314189;28;20021;-76
2022/04/13 02:15:26;;;;;;;15.35;7.53;;;;;;;-145.45;100.00;62759.84;5310859;28;20023;-76
2022/04/13 02:17:57;;;;;;;12.10;6.10;;;;;;;-145.45;100.00;62759.84;5309161;28;20036;-76
2022/04/13 02:20:28;;;;;;;13.15;6.95;;;;;;;-145.45;100.00;62759.84;5307425;28;20047;-76
2022/04/13 02:23:01;;;;;;;10.55;5.43;;;;;;;-145.45;100.00;62759.84;5302955;28;20036;-76
2022/04/13 02:25:36;;;;;;;15.27;6.72;;;;;;;-145.45;100.00;62759.84;5302970;28;20162;-75
2022/04/13 02:28:07;;;;;;;8.73;5.90;;;;;;;-145.45;100.00;62759.84;5303151;28;20098;-76
2022/04/13 02:30:38;;;;;;;13.63;7.10;;;;;;;-145.45;100.00;62759.84;5301489;28;20040;-76
2022/04/13 02:33:10;;;;;;;11.90;6.45;;;;;;;-145.45;100.00;62759.84;5308760;28;20060;-75
2022/04/13 02:35:41;;;;;;;13.02;6.68;;;;;;;-145.45;100.00;62759.84;5308007;28;20477;-75
2022/04/13 02:38:12;;;;;;;12.05;6.88;;;;;;;-145.45;100.00;62759.84;5308083;28;20400;-75
2022/04/13 02:40:44;;;;;;;10.23;6.30;;;;;;;-145.45;100.00;62759.84;5311826;28;20477;-76
2022/04/13 02:43:15;;;;;;;13.77;7.25;;;;;;;-145.45;100.00;62759.84;5311224;28;20072;-76
2022/04/13 02:45:46;;;;;;;14.73;6.55;;;;;;;-145.45;100.00;62759.84;5308135;28;20032;-76
2022/04/13 02:48:18;;;;;;;11.32;5.85;;;;;;;-145.45;100.00;62759.84;5309989;28;20130;-76
2022/04/13 02:50:49;;;;;;;10.38;6.45;;;;;;;-145.45;100.00;62759.84;5308429;28;20028;-76
2022/04/13 02:53:22;;;;;;;7.82;4.90;;;;;;;-145.45;100.00;62759.84;5307765;28;20091;-76
2022/04/13 02:55:53;;;;;;;6.68;5.07;;;;;;;-145.45;100.00;62759.84;5307693;28;20130;-76
2022/04/13 02:58:24;;;;;;;9.73;5.85;;;;;;;-145.45;100.00;62759.84;5311823;28;20413;-76
2022/04/13 03:00:56;;;;;;;14.85;6.68;;;;;;;-145.45;100.00;62759.84;5307237;28;20067;-76
2022/04/13 03:03:27;;;;;;;10.35;6.07;;;;;;;-145.45;100.00;62759.84;5314968;28;20048;-76
2022/04/13 03:05:58;;;;;;;11.15;6.90;;;;;;;-145.45;100.00;62759.84;5306843;28;20070;-75
2022/04/13 03:08:30;;;;;;;12.23;6.13;;;;;;;-145.45;100.00;62759.84;5310445;28;20029;-76
2022/04/13 03:11:01;;;;;;;11.02;6.38;;;;;;;-145.45;100.00;62759.84;5311768;28;20086;-76
2022/04/13 03:13:32;;;;;;;19.63;7.57;;;;;;;-145.45;100.00;62759.84;5314119;28;20081;-76
2022/04/13 03:16:04;;;;;;;10.77;6.85;;;;;;;-145.45;100.00;62759.84;5310270;28;32569;-77
2022/04/13 03:18:35;;;;;;;15.77;7.85;;;;;;;-145.45;100.00;62759.84;5286181;28;20041;-77
2022/04/13 03:21:06;;;;;;;13.75;7.72;;;;;;;-145.45;100.00;62759.84;5311013;28;20021;-76
2022/04/13 03:23:38;;;;;;;11.43;6.90;;;;;;;-145.45;100.00;62759.84;5316314;28;20037;-76
2022/04/13 03:26:09;;;;;;;13.55;7.35;;;;;;;-145.45;100.00;62759.84;5312845;28;42516;-77
2022/04/13 03:28:40;;;;;;;13.90;6.97;;;;;;;-145.45;100.00;62759.84;5305399;28;20498;-76
2022/04/13 03:31:11;;;;;;;12.15;6.75;;;;;;;-145.45;100.00;62759.84;5291722;28;20024;-76
2022/04/13 03:33:43;;;;;;;8.63;5.47;;;;;;;-145.45;100.00;62759.84;5311050;28;20028;-77
2022/04/13 03:36:16;;;;;;;12.25;7.22;;;;;;;-145.45;100.00;62759.84;5309890;28;20024;-76
2022/04/13 03:38:47;;;;;;;19.80;7.70;;;;;;;-145.45;100.00;62759.84;5292640;28;20478;-77
2022/04/13 03:41:18;;;;;;;15.48;8.05;;;;;;;-145.45;100.00;62759.84;5308684;28;20025;-76
2022/04/13 03:43:50;;;;;;;11.68;7.28;;;;;;;-145.45;100.00;62759.84;5312349;28;20059;-77
2022/04/13 03:46:21;;;;;;;8.43;6.53;;;;;;;-145.45;100.00;62759.84;5310560;28;20035;-77
2022/04/13 03:48:52;;;;;;;15.00;7.22;;;;;;;-145.45;100.00;62759.84;5310743;28;20043;-76
2022/04/13 03:51:23;;;;;;;12.55;7.53;;;;;;;-145.45;100.00;62759.84;5309980;28;20488;-77
2022/04/13 03:53:55;;;;;;;10.63;6.30;;;;;;;-145.45;100.00;62759.84;5311480;28;20361;-76
2022/04/13 03:56:27;;;;;;;13.45;7.00;;;;;;;-145.45;100.00;62759.84;5305694;28;20040;-77
2022/04/13 03:58:59;;;;;;;13.68;7.45;;;;;;;-145.45;100.00;62759.84;5313171;28;20126;-76
2022/04/13 04:01:31;;;;;;;11.90;7.22;;;;;;;-145.45;100.00;62759.84;5307511;28;20492;-76
2022/04/13 04:04:03;;;;;;;13.70;7.72;;;;;;;-145.45;100.00;62759.84;5301452;28;20036;-77
2022/04/13 04:06:34;;;;;;;13.10;8.25;;;;;;;-145.45;100.00;62759.84;5302134;28;20036;-77
2022/04/13 04:09:05;;;;;;;13.50;8.52;;;;;;;-145.45;100.00;62759.84;5299626;28;20389;-77
2022/04/13 04:11:36;;;;;;;9.60;7.47;;;;;;;-145.45;100.00;62759.84;5312609;28;20555;-76
2022/04/13 04:14:08;;;;;;;10.40;7.07;;;;;;;-145.45;100.00;62759.84;5311833;28;20044;-76
2022/04/13 04:16:39;;;;;;;16.58;9.38;;;;;;;-145.45;100.00;62759.84;5314553;28;20024;-77
2022/04/13 04:19:10;;;;;;;17.60;10.35;;;;;;;-145.45;100.00;62759.84;5313338;28;20020;-77
2022/04/13 04:21:42;;;;;;;19.88;8.32;;;;;;;-145.45;100.00;62759.84;5314916;28;20031;-76
2022/04/13 04:24:13;;;;;;;21.92;11.57;;;;;;;-145.45;100.00;62759.84;5313810;28;20028;-77
2022/04/13 04:26:44;;;;;;;13.52;8.98;;;;;;;-145.45;100.00;62759.84;5310636;28;20435;-76
2022/04/13 04:29:15;;;;;;;17.10;9.70;;;;;;;-145.45;100.00;62759.84;5313291;28;20099;-76
2022/04/13 04:32:04;;;;;;;18.02;9.20;;;;;;;-145.45;100.00;62759.84;5308965;28;20024;-76
2022/04/13 04:34:36;;;;;;;19.23;9.65;;;;;;;-145.45;100.00;62759.84;5300115;28;20032;-76
2022/04/13 04:37:07;;;;;;;15.93;9.20;;;;;;;-145.45;100.00;62759.84;5283051;28;20032;-76
2022/04/13 04:39:38;;;;;;;16.67;10.10;;;;;;;-145.45;100.00;62759.84;5299072;28;20020;-76
2022/04/13 04:42:09;;;;;;;17.60;11.68;;;;;;;-145.45;100.00;62759.84;5300328;28;20028;-76
2022/04/13 04:44:40;;;;;;;14.88;10.25;;;;;;;-145.45;100.00;62759.84;5305629;28;20052;-76
2022/04/13 04:47:12;;;;;;;17.73;10.27;;;;;;;-145.45;100.00;62759.84;5307486;28;20047;-76
2022/04/13 04:49:43;;;;;;;16.65;10.82;;;;;;;-145.45;100.00;62759.84;5314590;28;20022;-76
2022/04/13 04:52:14;;;;;;;20.85;11.30;;;;;;;-145.45;100.00;62759.84;5301114;28;20060;-77
2022/04/13 04:54:46;;;;;;;16.00;10.80;;;;;;;-145.45;100.00;62759.84;5307317;28;20035;-77
2022/04/13 04:57:17;;;;;;;21.42;12.23;;;;;;;-145.45;100.00;62759.84;5309445;28;20020;-77
2022/04/13 04:59:48;;;;;;;16.38;11.05;;;;;;;-145.45;100.00;62759.84;5311538;28;20031;-77
2022/04/13 05:02:19;;;;;;;17.38;12.57;;;;;;;-145.45;100.00;62759.84;5290248;28;20070;-77
2022/04/13 05:04:51;;;;;;;18.83;12.50;;;;;;;-145.45;100.00;62759.84;5309286;28;20108;-77
2022/04/13 05:07:22;;;;;;;22.48;14.00;;;;;;;-145.45;100.00;62759.84;5303558;28;20017;-77
2022/04/13 05:09:53;;;;;;;21.80;13.68;;;;;;;-145.45;100.00;62759.84;5301370;28;20413;-77
2022/04/13 05:12:25;;;;;;;25.15;14.27;;;;;;;-145.45;100.00;62759.84;5302246;28;20025;-77
2022/04/13 05:14:56;;;;;;;22.05;13.60;;;;;;;-145.45;100.00;62759.84;5309202;28;20444;-77
2022/04/13 05:17:28;;;;;;;22.98;14.40;;;;;;;-145.45;100.00;62759.84;5304744;28;20028;-77
2022/04/13 05:19:59;;;;;;;26.42;15.40;;;;;;;-145.45;100.00;62759.84;5293050;28;20024;-76
2022/04/13 05:22:30;;;;;;;21.48;15.13;;;;;;;-145.45;100.00;62759.84;5304129;28;20024;-77
2022/04/13 05:25:09;;;;;;;22.98;15.65;;;;;;;-145.45;100.00;62759.84;5307896;28;20099;-77
2022/04/13 05:27:41;;;;;;;22.83;15.13;;;;;;;-145.45;100.00;62759.84;5306522;28;20055;-76
2022/04/13 05:30:16;;;;;;;23.48;14.85;;;;;;;-145.45;100.00;62759.84;5314653;28;20028;-77
2022/04/13 05:32:49;;;;;;;29.67;15.52;;;;;;;-145.45;100.00;62759.84;5314193;28;20354;-76
2022/04/13 05:35:20;;;;;;;25.50;16.48;;;;;;;-145.45;100.00;62759.84;5323680;28;20129;-76
2022/04/13 05:37:52;;;;;;;21.48;16.33;;;;;;;-145.45;100.00;62759.84;5306446;28;20422;-76
2022/04/13 05:40:24;;;;;;;22.45;15.73;;;;;;;-145.45;100.00;62759.84;5305742;28;20028;-76
2022/04/13 05:42:56;;;;;;;19.17;14.27;;;;;;;-145.45;100.00;62759.84;5311584;28;20476;-76
2022/04/13 05:45:30;;;;;;;19.40;14.55;;;;;;;-145.45;100.00;62759.84;5311755;27;20103;-76
2022/04/13 05:48:02;;;;;;;25.77;16.95;;;;;;;-145.45;100.00;62759.84;5309837;28;20123;-76
2022/04/13 05:50:33;;;;;;;22.73;16.52;;;;;;;-145.45;100.00;62759.84;5310952;28;20107;-76
2022/04/13 05:53:05;;;;;;;20.63;14.93;;;;;;;-145.45;100.00;62759.84;5314459;28;20036;-76
2022/04/13 05:55:36;;;;;;;37.03;18.52;;;;;;;-145.45;100.00;62759.84;5298699;28;20024;-76
2022/04/13 05:58:07;;;;;;;27.23;16.30;;;;;;;-145.45;100.00;62759.84;5310525;28;41513;-77
2022/04/13 06:00:39;;;;;;;26.85;17.60;;;;;;;-145.45;100.00;62759.84;5304752;28;20058;-77
2022/04/13 06:03:10;;;;;;;28.70;17.10;;;;;;;-145.45;100.00;62759.84;5286545;28;20098;-76
2022/04/13 06:05:42;;;;;;;27.70;17.33;;;;;;;-145.45;100.00;62759.84;5320193;28;20016;-76
2022/04/13 06:08:14;;;;;;;26.33;17.30;;;;;;;-145.45;100.00;62759.84;5323357;28;20107;-77
2022/04/13 06:10:45;;;;;;;23.90;17.45;;;;;;;-145.45;100.00;62759.84;5285206;28;20097;-76
2022/04/13 06:13:16;;;;;;;21.33;16.25;;;;;;;-145.45;100.00;62759.84;5305169;28;20083;-76
2022/04/13 06:15:48;;;;;;;19.65;15.20;;;;;;;-145.45;100.00;62759.84;5303681;28;33598;-76
2022/04/13 06:18:19;;;;;;;24.60;16.67;;;;;;;-145.45;100.00;62759.84;5307371;28;20111;-76
2022/04/13 06:20:50;;;;;;;24.35;15.90;;;;;;;-145.45;100.00;62759.84;5308764;28;20364;-77
2022/04/13 06:23:21;;;;;;;24.30;15.32;;;;;;;-145.45;100.00;62759.84;5327242;28;20028;-77
2022/04/13 06:25:53;;;;;;;30.15;16.17;;;;;;;-145.45;100.00;62759.84;5326338;28;20016;-77
2022/04/13 06:28:24;;;;;;;22.95;16.05;;;;;;;-145.45;100.00;62759.84;5323810;28;20073;-77
2022/04/13 06:30:55;;;;;;;20.30;14.50;;;;;;;-145.45;100.00;62759.84;5286135;28;20195;-76
2022/04/13 06:33:27;;;;;;;18.77;15.48;;;;;;;-145.45;100.00;62759.84;5305884;28;20021;-77
2022/04/13 06:35:58;;;;;;;26.17;15.93;;;;;;;-145.45;100.00;62759.84;5305346;28;20024;-77
2022/04/13 06:38:29;;;;;;;25.50;17.08;;;;;;;-145.45;100.00;62759.84;5304842;28;20016;-76
2022/04/13 06:41:01;;;;;;;21.42;15.60;;;;;;;-145.45;100.00;62759.84;5290895;28;20021;-77
2022/04/13 06:43:32;;;;;;;25.75;16.00;;;;;;;-145.45;100.00;62759.84;5265606;28;20393;-77
2022/04/13 06:46:04;;;;;;;21.83;15.95;;;;;;;-145.45;100.00;62759.84;5283367;28;20113;-77
2022/04/13 06:48:36;;;;;;;29.05;15.30;;;;;;;-145.45;100.00;62759.84;5266292;28;20020;-77
2022/04/13 06:51:07;;;;;;;24.25;16.40;;;;;;;-145.45;100.00;62759.84;5307049;28;20029;-77
2022/04/13 06:53:38;;;;;;;24.25;16.58;;;;;;;-145.45;100.00;62759.84;5304962;28;20073;-77
2022/04/13 06:56:12;;;;;;;23.02;16.52;;;;;;;-145.45;100.00;62759.84;5304487;28;20032;-76
2022/04/13 06:58:45;;;;;;;21.50;15.27;;;;;;;-145.45;100.00;62759.84;5304081;28;20029;-77
2022/04/13 07:01:17;;;;;;;24.60;16.85;;;;;;;-145.45;100.00;62759.84;5313780;28;20015;-77
2022/04/13 07:03:48;;;;;;;24.42;17.38;;;;;;;-145.45;100.00;62759.84;5309204;28;20433;-77
2022/04/13 07:06:19;;;;;;;24.08;16.65;;;;;;;-145.45;100.00;62759.84;5285668;28;20760;-77
2022/04/13 07:08:51;;;;;;;20.80;16.60;;;;;;;-145.45;100.00;62759.84;5283708;28;20021;-77
2022/04/13 07:11:22;;;;;;;20.05;14.35;;;;;;;-145.45;100.00;62759.84;5284134;28;20023;-77
2022/04/13 07:13:53;;;;;;;21.88;16.10;;;;;;;-145.45;100.00;62759.84;5290636;28;20036;-76
2022/04/13 07:16:25;;;;;;;24.65;16.65;;;;;;;-145.45;100.00;62759.84;5284556;28;20104;-77
2022/04/13 07:18:56;;;;;;;20.25;14.90;;;;;;;-145.45;100.00;62759.84;5283501;28;20023;-77
2022/04/13 07:21:27;;;;;;;21.23;16.67;;;;;;;-145.45;100.00;62759.84;5294990;28;20116;-77
2022/04/13 07:23:59;;;;;;;24.08;15.25;;;;;;;-145.45;100.00;62759.84;5322469;28;20040;-77
2022/04/13 07:26:30;;;;;;;24.88;16.52;;;;;;;-145.45;100.00;62759.84;5325507;28;20020;-77
2022/04/13 07:29:01;;;;;;;17.83;15.35;;;;;;;-145.45;100.00;62759.84;5306856;28;20024;-77
2022/04/13 07:31:33;;;;;;;19.25;16.17;;;;;;;-145.45;100.00;62759.84;5314448;28;20036;-77
2022/04/13 07:34:04;;;;;;;18.63;14.82;;;;;;;-145.45;100.00;62759.84;5305103;28;41381;-77
2022/04/13 07:36:35;;;;;;;23.58;15.43;;;;;;;-145.45;100.00;62759.84;5297384;28;20016;-77
2022/04/13 07:39:07;;;;;;;23.05;15.43;;;;;;;-145.45;100.00;62759.84;5304281;28;20485;-77
2022/04/13 07:41:38;;;;;;;20.77;14.98;;;;;;;-145.45;100.00;62759.84;5282711;28;20705;-77
2022/04/13 07:44:09;;;;;;;21.95;15.15;;;;;;;-145.45;100.00;62759.84;5290239;28;20110;-77
2022/04/13 07:46:41;;;;;;;20.67;15.35;;;;;;;-145.45;100.00;62759.84;5319214;28;20028;-77
2022/04/13 07:49:12;;;;;;;22.92;15.20;;;;;;;-145.45;100.00;62759.84;5292521;28;20028;-77
2022/04/13 07:51:43;;;;;;;19.85;14.85;;;;;;;-145.45;100.00;62759.84;5305694;28;20170;-77
2022/04/13 07:54:15;;;;;;;23.77;16.10;;;;;;;-145.45;100.00;62759.84;5314925;28;20108;-77
2022/04/13 07:56:46;;;;;;;20.33;14.27;;;;;;;-145.45;100.00;62759.84;5307345;28;20020;-77
2022/04/13 07:59:17;;;;;;;22.15;15.02;;;;;;;-145.45;100.00;62759.84;5317194;28;20028;-77
2022/04/13 08:01:49;;;;;;;20.35;13.15;;;;;;;-145.45;100.00;62759.84;5320436;28;20111;-77
2022/04/13 08:04:20;;;;;;;19.63;13.40;;;;;;;-145.45;100.00;62759.84;5311855;28;20040;-77
2022/04/13 08:06:52;;;;;;;21.98;12.48;;;;;;;-145.45;100.00;62759.84;5275742;28;20074;-78
2022/04/13 08:09:23;;;;;;;16.05;12.13;;;;;;;-145.45;100.00;62759.84;5283113;28;20393;-77
2022/04/13 08:11:55;;;;;;;15.50;12.13;;;;;;;-145.45;100.00;62759.84;5282473;28;20103;-77
2022/04/13 08:14:26;;;;;;;13.73;11.25;;;;;;;-145.45;100.00;62759.84;5281669;28;20149;-77
2022/04/13 08:16:57;;;;;;;14.65;10.65;;;;;;;-145.45;100.00;62759.84;5264704;28;20021;-77
2022/04/13 08:19:28;;;;;;;15.05;10.68;;;;;;;-145.45;100.00;62759.84;5281531;28;20123;-77
2022/04/13 08:22:00;;;;;;;12.32;8.98;;;;;;;-145.45;100.00;62759.84;5287571;28;20491;-79
2022/04/13 08:24:31;;;;;;;10.90;8.23;;;;;;;-145.45;100.00;62759.84;5285315;28;20035;-78
2022/04/13 08:27:03;;;;;;;15.23;9.05;;;;;;;-145.45;100.00;62759.84;5303715;28;20024;-78
2022/04/13 08:29:35;;;;;;;13.45;8.88;;;;;;;-145.45;100.00;62759.84;5304434;28;20021;-77
2022/04/13 08:32:07;;;;;;;12.73;7.97;;;;;;;-145.45;100.00;62759.84;5306723;28;20028;-78
2022/04/13 08:34:39;;;;;;;11.63;8.55;;;;;;;-145.45;100.00;62759.84;5315176;28;20031;-78
2022/04/13 08:37:11;;;;;;;14.68;8.57;;;;;;;-145.45;100.00;62759.84;5323814;28;20515;-77
2022/04/13 08:39:42;;;;;;;13.40;8.00;;;;;;;-145.45;100.00;62759.84;5307114;28;20020;-77
2022/04/13 08:42:41;;;;;;;11.40;8.63;;;;;;;-145.45;100.00;62759.84;5284372;28;20035;-77
2022/04/13 08:45:21;;;;;;;13.88;8.13;;;;;;;-145.45;100.00;62759.84;5302045;28;20119;-78
2022/04/13 08:47:56;;;;;;;16.55;8.77;;;;;;;-145.45;100.00;62759.84;5301902;28;20021;-78
2022/04/13 08:50:29;;;;;;;12.27;8.73;;;;;;;-145.45;100.00;62759.84;5302572;28;20017;-78
2022/04/13 08:53:04;;;;;;;13.80;8.98;;;;;;;-145.45;100.00;62759.84;5302796;28;20318;-78
2022/04/13 08:55:41;;;;;;;16.77;8.90;;;;;;;-145.45;100.00;62759.84;5297985;28;20029;-78
2022/04/13 08:58:37;;;;;;;12.93;8.38;;;;;;;-145.45;100.00;62759.84;5279062;28;20028;-77
2022/04/13 09:01:20;;;;;;;11.93;8.25;;;;;;;-145.45;100.00;62759.84;5279333;28;20392;-77
2022/04/13 09:03:54;;;;;;;14.57;8.63;;;;;;;-145.45;100.00;62759.84;5296524;28;20029;-78
2022/04/13 09:06:28;;;;;;;13.13;9.25;;;;;;;-145.45;100.00;62759.84;5302815;28;20043;-78
2022/04/13 09:09:01;;;;;;;11.88;9.20;;;;;;;-145.45;100.00;62759.84;5317135;28;20051;-78
2022/04/13 09:11:36;;;;;;;16.05;8.55;;;;;;;-145.45;100.00;62759.84;5282562;28;20056;-78
2022/04/13 09:14:07;;;;;;;14.40;8.60;;;;;;;-145.45;100.00;62759.84;5293354;28;20048;-78
2022/04/13 09:16:41;;;;;;;12.43;8.65;;;;;;;-145.45;100.00;62759.84;5284995;28;20045;-77
2022/04/13 09:19:13;;;;;;;12.52;8.30;;;;;;;-145.45;100.00;62759.84;5305682;28;20111;-77
2022/04/13 09:21:44;;;;;;;16.20;8.95;;;;;;;-145.45;100.00;62759.84;5318819;28;20110;-77
2022/04/13 09:24:16;;;;;;;14.95;8.15;;;;;;;-145.45;100.00;62759.84;5327636;28;20043;-77
2022/04/13 09:26:48;;;;;;;14.95;8.73;;;;;;;-145.45;100.00;62759.84;5327405;28;20024;-77
2022/04/13 09:29:19;;;;;;;16.02;8.60;;;;;;;-145.45;100.00;62759.84;5288360;28;20040;-77
2022/04/13 09:31:51;;;;;;;14.98;8.70;;;;;;;-145.45;100.00;62759.84;5305882;28;20039;-76
2022/04/13 09:34:23;;;;;;;14.57;9.25;;;;;;;-145.45;100.00;62759.84;5293750;28;20029;-77
2022/04/13 09:36:55;;;;;;;13.20;9.43;;;;;;;-145.45;100.00;62759.84;5305993;28;20039;-76
2022/04/13 09:39:27;;;;;;;13.00;8.43;;;;;;;-145.45;100.00;62759.84;5288799;28;20021;-76
2022/04/13 09:42:02;;;;;;;16.25;10.23;;;;;;;-145.45;100.00;62759.84;5299925;28;20366;-77
2022/04/13 09:44:34;;;;;;;12.25;9.10;;;;;;;-145.45;100.00;62759.84;5308975;28;20032;-78
2022/04/13 09:47:06;;;;;;;12.90;7.43;;;;;;;-145.45;100.00;62759.84;5327607;28;20463;-77
2022/04/13 09:49:45;;;;;;;10.57;8.50;;;;;;;-145.45;100.00;62759.84;5328259;28;20064;-77
2022/04/13 09:52:18;;;;;;;12.23;7.85;;;;;;;-145.45;100.00;62759.84;5326196;28;20024;-77
2022/04/13 09:54:50;;;;;;;13.52;10.02;;;;;;;-145.45;100.00;62759.84;5292975;28;20442;-77
2022/04/13 09:57:23;;;;;;;15.50;10.38;;;;;;;-145.45;100.00;62759.84;5296542;28;20036;-77
2022/04/13 09:59:59;;;;;;;15.65;10.75;;;;;;;-145.45;100.00;62759.84;5286814;28;20020;-77
2022/04/13 10:02:43;;;;;;;17.05;10.45;;;;;;;-145.45;100.00;62759.84;5299077;28;20017;-78
2022/04/13 10:05:18;;;;;;;17.45;11.93;;;;;;;-145.45;100.00;62759.84;5281068;28;20351;-77
2022/04/13 10:08:03;;;;;;;17.27;11.68;;;;;;;-145.45;100.00;62759.84;5306200;28;20028;-77
2022/04/13 10:10:39;;;;;;;17.67;11.70;;;;;;;-145.45;100.00;62759.84;5304168;28;20021;-77
2022/04/13 10:13:11;;;;;;;16.60;11.93;;;;;;;-145.45;100.00;62759.84;5265268;28;20430;-77
2022/04/13 10:15:56;;;;;;;13.07;10.45;;;;;;;-145.45;100.00;62759.84;5292841;28;20331;-76
2022/04/13 10:18:28;;;;;;;14.52;10.40;;;;;;;-145.45;100.00;62759.84;5290382;28;20017;-77
2022/04/13 10:21:00;;;;;;;17.02;11.38;;;;;;;-145.45;100.00;62759.84;5284150;28;20029;-77
2022/04/13 10:23:39;;;;;;;17.60;11.90;;;;;;;-145.45;100.00;62759.84;5325060;28;20487;-77
2022/04/13 10:26:11;;;;;;;17.33;11.10;;;;;;;-145.45;100.00;62759.84;5326303;28;20502;-77
2022/04/13 10:28:48;;;;;;;11.57;9.98;;;;;;;-145.45;100.00;62759.84;5308518;28;20040;-76
2022/04/13 10:31:20;;;;;;;15.85;11.13;;;;;;;-145.45;100.00;62759.84;5320075;27;20054;-77
2022/04/13 10:33:56;;;;;;;14.10;10.93;;;;;;;-145.45;100.00;62759.84;5265991;28;20393;-77
2022/04/13 10:36:27;;;;;;;17.35;11.68;;;;;;;-145.45;100.00;62759.84;5293422;28;20177;-77
2022/04/13 10:38:58;;;;;;;13.73;11.55;;;;;;;-145.45;100.00;62759.84;5290219;28;20032;-77
2022/04/13 10:41:30;;;;;;;18.05;12.52;;;;;;;-145.45;100.00;62759.84;5297905;28;20025;-77
2022/04/13 10:44:02;;;;;;;14.27;12.00;;;;;;;-145.45;100.00;62759.84;5309256;28;20044;-77
2022/04/13 10:46:34;;;;;;;19.50;13.23;;;;;;;-145.45;100.00;62759.84;5299074;28;20028;-77
2022/04/13 10:49:11;;;;;;;19.50;13.70;;;;;;;-145.45;100.00;62759.84;5300612;28;20108;-77
2022/04/13 10:51:44;;;;;;;19.20;15.07;;;;;;;-145.45;100.00;62759.84;5270406;28;20388;-77
2022/04/13 10:54:18;;;;;;;21.48;15.95;;;;;;;-145.45;100.00;62759.84;5307556;28;20024;-77
2022/04/13 10:56:56;;;;;;;21.85;17.48;;;;;;;-145.45;100.00;62759.84;5326110;28;20043;-77
2022/04/13 10:59:36;;;;;;;19.35;17.35;;;;;;;-145.45;100.00;62759.84;5307215;28;20354;-77
2022/04/13 11:02:26;;;;;;;21.95;17.83;;;;;;;-145.45;100.00;62759.84;5297972;28;20020;-77
2022/04/13 11:04:58;;;;;;;22.02;19.83;;;;;;;-145.45;100.00;62759.84;5303692;28;20416;-77
2022/04/13 11:07:31;;;;;;;23.65;19.20;;;;;;;-145.45;100.00;62759.84;5293260;28;20020;-77
2022/04/13 11:10:04;;;;;;;26.92;19.77;;;;;;;-145.45;100.00;62759.84;5309605;28;20020;-78
2022/04/13 11:12:37;;;;;;;23.88;19.83;;;;;;;-145.45;100.00;62759.84;5285848;28;20021;-77
2022/04/13 11:15:09;;;;;;;24.98;19.80;;;;;;;-145.45;100.00;62759.84;5299519;28;20369;-77
2022/04/13 11:17:42;;;;;;;24.45;20.55;;;;;;;-145.45;100.00;62759.84;5324315;28;20012;-78
2022/04/13 11:20:21;;;;;;;23.10;19.63;;;;;;;-145.45;100.00;62759.84;5281647;28;20068;-78
2022/04/13 11:23:13;;;;;;;24.95;20.58;;;;;;;-145.45;100.00;62759.84;5264141;28;20408;-78